createdAt,value
2022-12-08T00:02:20.270Z,100128.19
2022-12-08T00:05:41.406Z,100127.69
2022-12-08T00:09:02.196Z,100131.16
2022-12-08T00:12:06.028Z,100120.84
2022-12-08T00:15:08.487Z,100126.84
2022-12-08T00:18:10.777Z,100132.81
2022-12-08T00:21:13.061Z,100122.66
2022-12-08T00:24:15.416Z,100120.06
2022-12-08T00:27:18.191Z,100112.13
2022-12-08T00:30:20.889Z,100135.84
2022-12-08T00:33:23.267Z,100126.78
2022-12-08T00:36:25.641Z,100116.09
2022-12-08T00:39:27.990Z,100130.75
2022-12-08T00:42:30.293Z,100137.72
2022-12-08T00:45:32.611Z,100137.41
2022-12-08T00:48:35.104Z,100118.94
2022-12-08T00:51:37.705Z,100128.78
2022-12-08T00:54:39.970Z,100136.50
2022-12-08T00:57:42.228Z,100116.75
2022-12-08T01:00:44.654Z,100122.97
2022-12-08T01:03:47.035Z,100129.28
2022-12-08T01:06:49.603Z,100130.22
2022-12-08T01:09:52.886Z,100139.28
2022-12-08T01:12:55.142Z,100121.09
2022-12-08T01:15:57.402Z,100127.06
2022-12-08T01:19:01.161Z,100140.81
2022-12-08T01:22:03.575Z,100127.66
2022-12-08T01:25:06.815Z,100137.59
2022-12-08T01:28:09.086Z,100123.59
2022-12-08T01:31:21.430Z,100129.16
2022-12-08T01:34:23.792Z,100128.13
2022-12-08T01:37:26.086Z,100130.06
2022-12-08T01:40:28.461Z,100140.31
2022-12-08T01:44:09.482Z,100131.88
2022-12-08T01:47:12.230Z,100126.06
2022-12-08T01:50:16.305Z,100120.41
2022-12-08T01:53:30.634Z,100106.63
2022-12-08T01:56:38.033Z,100105.31
2022-12-08T01:59:45.361Z,100108.28
2022-12-08T02:02:56.960Z,100115.34
2022-12-08T02:05:59.216Z,100096.53
2022-12-08T02:09:02.051Z,100100.13
2022-12-08T02:12:04.704Z,100099.16
2022-12-08T02:15:07.578Z,100105.63
2022-12-08T02:18:26.009Z,100090.97
2022-12-08T02:21:47.046Z,100107.94
2022-12-08T02:25:07.717Z,100110.91
2022-12-08T02:28:26.906Z,100106.53
2022-12-08T02:31:44.417Z,100111.66
2022-12-08T02:35:08.713Z,100112.81
2022-12-08T02:38:33.590Z,100093.22
2022-12-08T02:41:49.580Z,100095.00
2022-12-08T02:44:58.156Z,100072.88
2022-12-08T02:48:00.758Z,100079.91
2022-12-08T02:51:03.549Z,100069.22
2022-12-08T02:54:06.523Z,100078.53
2022-12-08T02:57:23.941Z,100071.00
2022-12-08T03:00:30.116Z,100041.84
2022-12-08T03:03:41.619Z,100069.81
2022-12-08T03:06:52.983Z,100068.38
2022-12-08T03:10:05.290Z,100063.75
2022-12-08T03:13:16.919Z,100058.81
2022-12-08T03:16:23.649Z,100057.00
2022-12-08T03:19:33.280Z,100059.44
2022-12-08T03:22:35.859Z,100060.56
2022-12-08T03:25:47.093Z,100067.03
2022-12-08T03:28:49.399Z,100062.34
2022-12-08T03:31:58.118Z,100066.97
2022-12-08T03:35:03.575Z,100071.66
2022-12-08T03:38:10.795Z,100069.13
2022-12-08T03:41:18.788Z,100074.00
2022-12-08T03:44:21.083Z,100077.00
2022-12-08T03:47:23.492Z,100062.00
2022-12-08T03:50:25.962Z,100069.19
2022-12-08T03:53:28.346Z,100072.16
2022-12-08T03:56:33.337Z,100060.03
2022-12-08T03:59:35.637Z,100054.69
2022-12-08T04:02:37.983Z,100057.38
2022-12-08T04:05:40.273Z,100064.78
2022-12-08T04:08:42.627Z,100066.28
2022-12-08T04:11:44.920Z,100060.03
2022-12-08T04:14:47.797Z,100039.91
2022-12-08T04:17:50.103Z,100042.16
2022-12-08T04:20:53.334Z,100051.34
2022-12-08T04:24:00.814Z,100042.03
2022-12-08T04:27:03.815Z,100036.31
2022-12-08T04:30:07.028Z,100052.28
2022-12-08T04:33:09.698Z,100046.09
2022-12-08T04:36:12.012Z,100034.53
2022-12-08T04:39:14.399Z,100042.09
2022-12-08T04:42:16.667Z,100049.50
2022-12-08T04:45:19.237Z,100043.53
2022-12-08T04:48:21.551Z,100033.72
2022-12-08T04:51:23.908Z,100038.28
2022-12-08T04:54:27.143Z,100039.22
2022-12-08T04:57:29.560Z,100038.38
2022-12-08T05:00:31.800Z,100028.88
2022-12-08T05:03:34.518Z,100043.53
2022-12-08T05:06:36.778Z,100045.38
2022-12-08T05:09:39.219Z,100040.59
2022-12-08T05:12:41.585Z,100038.13
2022-12-08T05:15:44.128Z,100056.28
2022-12-08T05:18:46.525Z,100045.75
2022-12-08T05:21:48.926Z,100046.88
2022-12-08T05:24:51.171Z,100050.72
2022-12-08T05:28:06.152Z,100046.47
2022-12-08T05:31:16.941Z,100046.81
2022-12-08T05:34:19.355Z,100038.38
2022-12-08T05:37:21.647Z,100030.19
2022-12-08T05:40:23.907Z,100028.63
2022-12-08T05:43:27.136Z,100022.00
2022-12-08T05:46:29.673Z,100024.59
2022-12-08T05:49:32.095Z,100006.69
2022-12-08T05:52:34.446Z,100022.53
2022-12-08T05:55:37.923Z,100013.59
2022-12-08T05:58:40.305Z,100037.38
2022-12-08T06:01:43.012Z,100039.69
2022-12-08T06:04:45.527Z,100038.31
2022-12-08T06:07:47.814Z,100033.41
2022-12-08T06:10:50.301Z,100033.78
2022-12-08T06:13:53.106Z,100024.88
2022-12-08T06:16:55.512Z,100033.94
2022-12-08T06:19:57.858Z,100037.41
2022-12-08T06:23:00.271Z,100046.94
2022-12-08T06:26:07.832Z,100043.38
2022-12-08T06:29:10.510Z,100046.78
2022-12-08T06:32:12.983Z,100030.22
2022-12-08T06:35:15.387Z,100043.31
2022-12-08T06:38:17.720Z,100049.94
2022-12-08T06:41:20.103Z,100053.13
2022-12-08T06:44:22.534Z,100049.03
2022-12-08T06:47:26.422Z,100053.94
2022-12-08T06:50:28.985Z,100044.22
2022-12-08T06:53:31.271Z,100039.00
2022-12-08T06:56:33.563Z,100049.53
2022-12-08T06:59:35.793Z,100046.25
2022-12-08T07:02:38.963Z,100049.53
2022-12-08T07:05:41.897Z,100048.38
2022-12-08T07:08:44.346Z,100048.44
2022-12-08T07:11:46.714Z,100050.09
2022-12-08T07:14:48.971Z,100054.31
2022-12-08T07:17:56.293Z,100049.13
2022-12-08T07:21:06.146Z,100049.13
2022-12-08T07:24:08.660Z,100041.47
2022-12-08T07:27:10.921Z,100042.91
2022-12-08T07:30:13.918Z,100043.13
2022-12-08T07:33:16.193Z,100042.28
2022-12-08T07:36:18.856Z,100050.75
2022-12-08T07:39:21.246Z,100052.63
2022-12-08T07:42:23.496Z,100048.56
2022-12-08T07:45:31.449Z,100050.31
2022-12-08T07:48:34.457Z,100045.56
2022-12-08T07:51:36.726Z,100038.97
2022-12-08T07:54:39.198Z,100056.78
2022-12-08T07:57:42.763Z,100054.13
2022-12-08T08:00:45.120Z,100045.41
2022-12-08T08:03:47.517Z,100038.78
2022-12-08T08:06:50.043Z,100035.19
2022-12-08T08:09:52.301Z,100030.91
2022-12-08T08:12:54.927Z,100036.47
2022-12-08T08:16:04.398Z,100039.41
2022-12-08T08:19:06.795Z,100046.84
2022-12-08T08:22:09.208Z,100024.09
2022-12-08T08:25:11.499Z,100024.91
2022-12-08T08:28:13.779Z,100032.97
2022-12-08T08:31:16.576Z,100031.63
2022-12-08T08:34:18.912Z,100030.28
2022-12-08T08:37:21.199Z,100020.09
2022-12-08T08:40:23.767Z,100024.09
2022-12-08T08:43:32.947Z,100028.59
2022-12-08T08:46:38.636Z,100011.31
2022-12-08T08:49:41.144Z,100027.66
2022-12-08T08:52:43.417Z,100022.56
2022-12-08T08:55:45.684Z,100028.09
2022-12-08T08:58:49.650Z,100015.53
2022-12-08T09:01:52.070Z,100021.25
2022-12-08T09:04:54.491Z,100025.31
2022-12-08T09:07:56.819Z,100013.91
2022-12-08T09:10:59.117Z,100003.31
2022-12-08T09:14:01.488Z,100000.69
2022-12-08T09:17:04.100Z,99987.38
2022-12-08T09:20:07.723Z,100003.31
2022-12-08T09:23:13.006Z,100007.78
2022-12-08T09:26:15.464Z,100022.69
2022-12-08T09:29:17.886Z,99990.28
2022-12-08T09:32:20.385Z,99969.53
2022-12-08T09:35:22.728Z,99975.88
2022-12-08T09:38:25.005Z,99992.53
2022-12-08T09:41:44.892Z,99992.72
2022-12-08T09:44:57.344Z,100006.03
2022-12-08T09:48:20.221Z,99994.63
2022-12-08T09:51:27.910Z,99974.69
2022-12-08T09:54:39.206Z,99980.31
2022-12-08T09:57:41.622Z,99980.09
2022-12-08T10:00:44.037Z,99962.25
2022-12-08T10:04:06.723Z,99964.91
2022-12-08T10:07:27.676Z,99978.53
2022-12-08T10:10:38.750Z,99990.53
2022-12-08T10:14:02.732Z,99952.06
2022-12-08T10:17:14.896Z,99950.03
2022-12-08T10:20:21.159Z,99964.06
2022-12-08T10:23:26.710Z,99977.50
2022-12-08T10:26:32.802Z,99975.25
2022-12-08T10:29:35.064Z,99970.59
2022-12-08T10:32:37.316Z,99956.97
2022-12-08T10:36:00.616Z,99954.91
2022-12-08T10:39:02.913Z,99956.16
2022-12-08T10:42:09.915Z,99945.41
2022-12-08T10:45:18.111Z,99939.06
2022-12-08T10:48:23.118Z,99925.22
2022-12-08T10:51:28.607Z,99922.78
2022-12-08T10:54:37.404Z,99917.91
2022-12-08T10:57:39.683Z,99913.41
2022-12-08T11:00:42.033Z,99913.41
2022-12-08T11:03:51.545Z,99912.19
2022-12-08T11:06:53.879Z,99898.13
2022-12-08T11:09:58.316Z,99913.16
2022-12-08T11:13:02.613Z,99897.31
2022-12-08T11:16:06.256Z,99891.19
2022-12-08T11:19:15.002Z,99889.16
2022-12-08T11:22:29.338Z,99884.06
2022-12-08T11:25:31.539Z,99870.44
2022-12-08T11:28:33.891Z,99859.22
2022-12-08T11:32:03.035Z,99862.03
2022-12-08T11:35:07.029Z,99852.31
2022-12-08T11:38:21.919Z,99832.94
2022-12-08T11:41:29.032Z,99830.84
2022-12-08T11:44:36.075Z,99824.38
2022-12-08T11:47:55.830Z,99814.41
2022-12-08T11:51:06.237Z,99807.53
2022-12-08T11:54:31.198Z,99818.16
2022-12-08T11:57:33.503Z,99792.88
2022-12-08T12:00:35.873Z,99786.56
2022-12-08T12:03:45.012Z,99781.50
2022-12-08T12:06:55.806Z,99782.81
2022-12-08T12:10:20.937Z,99790.50
2022-12-08T12:13:32.098Z,99799.59
2022-12-08T12:16:37.298Z,99793.78
2022-12-08T12:19:40.214Z,99803.13
2022-12-08T12:22:44.833Z,99796.81
2022-12-08T12:26:02.883Z,99802.50
2022-12-08T12:29:16.846Z,99807.81
2022-12-08T12:32:19.268Z,99806.41
2022-12-08T12:35:27.817Z,99806.00
2022-12-08T12:38:55.965Z,99808.25
2022-12-08T12:42:05.649Z,99814.94
2022-12-08T12:45:32.502Z,99804.78
2022-12-08T12:48:34.804Z,99814.94
2022-12-08T12:51:45.024Z,99808.03
2022-12-08T12:54:50.189Z,99793.41
2022-12-08T12:57:58.458Z,99786.47
2022-12-08T13:01:12.955Z,99792.78
2022-12-08T13:04:16.341Z,99780.16
2022-12-08T13:07:23.731Z,99769.00
2022-12-08T13:10:29.193Z,99765.31
2022-12-08T13:13:31.656Z,99760.47
2022-12-08T13:16:40.362Z,99764.91
2022-12-08T13:19:47.533Z,99761.06
2022-12-08T13:22:53.707Z,99768.59
2022-12-08T13:26:23.549Z,99772.84
2022-12-08T13:29:26.534Z,99769.59
2022-12-08T13:32:29.334Z,99766.53
2022-12-08T13:35:36.840Z,99770.41
2022-12-08T13:38:39.422Z,99760.25
2022-12-08T13:41:44.923Z,99773.84
2022-12-08T13:45:59.217Z,99785.84
2022-12-08T13:50:42.713Z,99780.56
2022-12-08T13:59:07.158Z,99762.69
2022-12-08T14:02:39.530Z,99774.06
2022-12-08T14:09:12.155Z,99757.41
2022-12-08T14:12:21.781Z,99759.22
2022-12-08T14:15:25.612Z,99761.88
2022-12-08T14:18:31.859Z,99757.19
2022-12-08T14:21:36.224Z,99742.53
2022-12-08T14:24:40.018Z,99744.56
2022-12-08T14:27:42.931Z,99771.84
2022-12-08T14:30:45.332Z,99755.97
2022-12-08T14:33:51.788Z,99767.75
2022-12-08T14:36:58.160Z,99744.78
2022-12-08T14:40:06.786Z,99771.22
2022-12-08T14:43:09.256Z,99770.63
2022-12-08T14:46:22.695Z,99772.81
2022-12-08T14:49:51.748Z,99780.75
2022-12-08T14:52:54.031Z,99769.56
2022-12-08T14:55:56.354Z,99778.72
2022-12-08T14:59:03.303Z,99762.03
2022-12-08T15:03:16.958Z,99740.09
2022-12-08T15:06:22.756Z,99765.13
2022-12-08T15:09:32.806Z,99766.16
2022-12-08T15:12:35.144Z,99731.78
2022-12-08T15:15:51.089Z,99747.63
2022-12-08T15:19:02.791Z,99750.22
2022-12-08T15:22:14.096Z,99756.50
2022-12-08T15:25:16.431Z,99755.06
2022-12-08T15:28:24.040Z,99765.63
2022-12-08T15:31:28.923Z,99748.75
2022-12-08T15:34:31.729Z,99748.53
2022-12-08T15:37:33.993Z,99737.75
2022-12-08T15:40:36.244Z,99732.69
2022-12-08T15:43:38.511Z,99736.09
2022-12-08T15:46:40.801Z,99747.50
2022-12-08T15:49:43.363Z,99728.00
2022-12-08T15:52:45.726Z,99726.56
2022-12-08T15:56:10.876Z,99722.31
2022-12-08T15:59:15.712Z,99730.59
2022-12-08T16:02:22.511Z,99746.91
2022-12-08T16:05:44.295Z,99715.38
2022-12-08T16:08:56.095Z,99729.38
2022-12-08T16:13:48.168Z,99764.75
2022-12-08T16:16:19.677Z,99753.19
2022-12-08T16:19:21.985Z,99747.31
2022-12-08T16:26:17.141Z,99731.19
2022-12-08T16:29:18.524Z,99721.66
2022-12-08T16:32:20.926Z,99708.25
2022-12-08T16:35:23.206Z,99705.00
2022-12-08T16:38:25.464Z,99688.69
2022-12-08T16:41:46.376Z,99694.16
2022-12-08T16:44:48.651Z,99700.28
2022-12-08T16:47:56.465Z,99706.03
2022-12-08T16:50:58.799Z,99712.31
2022-12-08T16:54:01.120Z,99703.16
2022-12-08T16:57:03.374Z,99705.19
2022-12-08T17:00:07.702Z,99712.91
2022-12-08T17:03:11.810Z,99717.56
2022-12-08T17:06:18.077Z,99720.63
2022-12-08T17:09:20.466Z,99733.63
2022-12-08T17:12:22.769Z,99745.63
2022-12-08T17:15:25.835Z,99741.72
2022-12-08T17:18:28.124Z,99763.88
2022-12-08T17:21:30.499Z,99744.81
2022-12-08T17:24:32.771Z,99742.75
2022-12-08T17:27:36.112Z,99751.09
2022-12-08T17:30:38.771Z,99746.41
2022-12-08T17:33:41.286Z,99726.28
2022-12-08T17:36:43.593Z,99720.00
2022-12-08T17:39:45.971Z,99715.53
2022-12-08T17:42:48.249Z,99715.56
2022-12-08T17:45:50.560Z,99712.31
2022-12-08T17:48:53.619Z,99713.56
2022-12-08T17:51:58.679Z,99700.13
2022-12-08T17:55:00.960Z,99723.72
2022-12-08T17:58:04.424Z,99720.47
2022-12-08T18:01:10.827Z,99704.25
2022-12-08T18:04:13.575Z,99713.19
2022-12-08T18:07:18.031Z,99691.63
2022-12-08T18:10:20.547Z,99712.56
2022-12-08T18:13:22.780Z,99729.03
2022-12-08T18:16:26.662Z,99719.88
2022-12-08T18:19:29.006Z,99716.44
2022-12-08T18:22:31.226Z,99718.06
2022-12-08T18:25:33.478Z,99705.38
2022-12-08T18:28:36.720Z,99696.69
2022-12-08T18:31:39.038Z,99705.38
2022-12-08T18:34:41.462Z,99700.63
2022-12-08T18:37:43.798Z,99695.81
2022-12-08T18:40:46.107Z,99706.63
2022-12-08T18:43:48.426Z,99708.56
2022-12-08T18:46:51.005Z,99726.75
2022-12-08T18:49:53.369Z,99721.44
2022-12-08T18:52:55.641Z,99705.38
2022-12-08T18:55:57.895Z,99717.91
2022-12-08T18:59:03.925Z,99715.25
2022-12-08T19:02:06.619Z,99717.13
2022-12-08T19:05:10.613Z,99708.97
2022-12-08T19:08:13.091Z,99701.28
2022-12-08T19:11:20.477Z,99702.25
2022-12-08T19:14:27.771Z,99711.38
2022-12-08T19:17:31.139Z,99707.72
2022-12-08T19:20:33.523Z,99706.91
2022-12-08T19:23:35.879Z,99712.19
2022-12-08T19:26:38.770Z,99721.63
2022-12-08T19:29:41.051Z,99716.72
2022-12-08T19:32:43.357Z,99712.28
2022-12-08T19:35:52.192Z,99729.78
2022-12-08T19:39:14.322Z,99721.56
2022-12-08T19:42:37.571Z,99719.50
2022-12-08T19:45:39.969Z,99707.34
2022-12-08T19:48:42.396Z,99714.78
2022-12-08T19:51:44.867Z,99704.88
2022-12-08T19:54:47.470Z,99716.63
2022-12-08T19:57:50.968Z,99725.66
2022-12-08T20:00:53.437Z,99703.28
2022-12-08T20:03:55.793Z,99710.00
2022-12-08T20:06:58.172Z,99700.84
2022-12-08T20:10:00.726Z,99714.50
2022-12-08T20:13:22.086Z,99708.81
2022-12-08T20:16:24.538Z,99714.09
2022-12-08T20:19:27.424Z,99707.81
2022-12-08T20:22:32.120Z,99683.81
2022-12-08T20:25:35.000Z,99692.78
2022-12-08T20:28:37.819Z,99694.63
2022-12-08T20:31:40.132Z,99667.78
2022-12-08T20:34:42.437Z,99681.59
2022-12-08T20:37:44.737Z,99673.66
2022-12-08T20:40:47.614Z,99687.06
2022-12-08T20:43:50.607Z,99689.28
2022-12-08T20:46:53.320Z,99683.19
2022-12-08T20:49:55.740Z,99691.72
2022-12-08T20:52:58.558Z,99697.81
2022-12-08T20:56:02.942Z,99703.72
2022-12-08T20:59:05.885Z,99710.63
2022-12-08T21:02:10.645Z,99700.41
2022-12-08T21:05:13.272Z,99711.84
2022-12-08T21:08:15.908Z,99705.72
2022-12-08T21:11:18.667Z,99707.78
2022-12-08T21:14:21.124Z,99734.03
2022-12-08T21:17:23.724Z,99719.38
2022-12-08T21:20:26.274Z,99717.56
2022-12-08T21:23:28.946Z,99715.56
2022-12-08T21:26:31.827Z,99730.97
2022-12-08T21:29:34.330Z,99724.03
2022-12-08T21:32:39.148Z,99715.72
2022-12-08T21:35:41.591Z,99710.59
2022-12-08T21:38:44.594Z,99707.16
2022-12-08T21:42:05.923Z,99694.97
2022-12-08T21:45:09.032Z,99676.31
2022-12-08T21:48:12.197Z,99665.94
2022-12-08T21:51:14.861Z,99676.72
2022-12-08T21:54:19.284Z,99670.81
2022-12-08T21:57:21.926Z,99672.78
2022-12-08T22:00:24.770Z,99678.53
2022-12-08T22:03:28.501Z,99683.38
2022-12-08T22:06:31.044Z,99681.81
2022-12-08T22:09:33.522Z,99684.66
2022-12-08T22:12:37.168Z,99694.03
2022-12-08T22:15:39.616Z,99691.13
2022-12-08T22:18:42.606Z,99693.78
2022-12-08T22:21:45.200Z,99684.25
2022-12-08T22:24:47.887Z,99678.97
2022-12-08T22:27:50.163Z,99680.94
2022-12-08T22:30:52.611Z,99689.69
2022-12-08T22:33:55.112Z,99704.19
2022-12-08T22:36:57.633Z,99701.28
2022-12-08T22:40:00.173Z,99692.81
2022-12-08T22:43:02.530Z,99694.81
2022-12-08T22:46:14.999Z,99705.97
2022-12-08T22:49:17.297Z,99692.56
2022-12-08T22:52:19.593Z,99690.13
2022-12-08T22:55:21.873Z,99690.75
2022-12-08T22:58:24.319Z,99696.47
2022-12-08T23:01:29.594Z,99700.91
2022-12-08T23:04:32.088Z,99703.34
2022-12-08T23:07:34.555Z,99698.25
2022-12-08T23:10:36.937Z,99687.44
2022-12-08T23:13:42.263Z,99701.09
2022-12-08T23:16:44.719Z,99691.34
2022-12-08T23:19:47.349Z,99698.25
2022-12-08T23:22:49.742Z,99693.38
2022-12-08T23:25:52.283Z,99698.66
2022-12-08T23:28:55.476Z,99688.69
2022-12-08T23:31:58.382Z,99697.03
2022-12-08T23:35:00.882Z,99695.22
2022-12-08T23:38:03.335Z,99693.16
2022-12-08T23:41:07.856Z,99689.53
2022-12-08T23:44:12.418Z,99697.84
2022-12-08T23:47:14.855Z,99689.69
2022-12-08T23:50:17.295Z,99682.34
2022-12-08T23:53:19.584Z,99676.03
2022-12-08T23:56:24.335Z,99683.97
2022-12-08T23:59:31.097Z,99684.34
